Time;durP1;ratioP1;P1;durP2;ratioP2;P2;SDS_P1;SDS_P2;PMS_P1;PMS_P2;Temp;Humidity;BMP_temperature;BMP_pressure;BME280_temperature;BME280_humidity;BME280_pressure;Samples;Min_cycle;Max_cycle;Signal;HPM_P1;HPM_P2
2023/07/02 00:00:54;;;;;;;9.03;3.93;;;;;;;25.25;70.55;98174.16;6215531;23;20165;-85
2023/07/02 00:03:21;;;;;;;9.57;3.93;;;;;;;25.25;70.62;98173.34;6215388;23;20275;-85
2023/07/02 00:05:50;;;;;;;10.40;3.80;;;;;;;25.17;71.02;98168.97;6215381;23;21248;-85
2023/07/02 00:08:16;;;;;;;6.63;3.70;;;;;;;25.15;71.07;98162.97;6189322;23;20634;-85
2023/07/02 00:10:41;;;;;;;6.53;3.40;;;;;;;25.18;71.10;98172.47;6189293;23;20181;-85
2023/07/02 00:13:07;;;;;;;6.23;3.97;;;;;;;25.32;70.02;98158.09;6215783;23;20173;-86
2023/07/02 00:15:32;;;;;;;7.90;4.00;;;;;;;25.28;69.86;98146.97;6189390;23;20523;-85
2023/07/02 00:17:58;;;;;;;13.27;4.40;;;;;;;25.33;69.32;98141.81;6189216;23;20181;-86
2023/07/02 00:20:23;;;;;;;9.27;3.90;;;;;;;25.29;69.10;98145.91;6215451;23;20467;-85
2023/07/02 00:22:49;;;;;;;7.20;3.87;;;;;;;25.13;69.84;98143.53;6215374;23;20288;-85
2023/07/02 00:25:15;;;;;;;7.17;4.30;;;;;;;25.13;70.23;98151.59;6215665;23;20205;-85
2023/07/02 00:27:40;;;;;;;9.03;4.17;;;;;;;25.15;69.90;98148.72;6215405;23;20157;-85
2023/07/02 00:30:06;;;;;;;7.83;4.50;;;;;;;25.17;69.41;98146.66;6189994;23;20532;-85
2023/07/02 00:32:32;;;;;;;9.53;4.70;;;;;;;25.08;69.82;98155.91;6189293;23;20157;-85
2023/07/02 00:34:58;;;;;;;6.40;4.30;;;;;;;25.04;70.45;98153.63;6189031;23;20176;-85
2023/07/02 00:37:24;;;;;;;6.83;4.00;;;;;;;24.89;71.36;98152.88;6215404;23;20192;-85
2023/07/02 00:39:49;;;;;;;8.23;4.80;;;;;;;24.85;71.05;98154.28;6215304;23;20585;-85
2023/07/02 00:42:14;;;;;;;7.73;3.47;;;;;;;24.79;71.46;98162.28;6189096;23;20157;-85
2023/07/02 00:44:40;;;;;;;7.73;4.50;;;;;;;24.73;71.45;98166.53;6215642;23;20170;-85
2023/07/02 00:47:10;;;;;;;6.73;3.50;;;;;;;24.76;71.33;98168.84;6189061;23;20474;-85
2023/07/02 00:49:35;;;;;;;10.67;4.03;;;;;;;24.83;70.84;98161.69;6215276;23;20637;-85
2023/07/02 00:52:01;;;;;;;7.43;4.23;;;;;;;24.93;70.59;98162.19;6215270;23;20184;-85
2023/07/02 00:54:30;;;;;;;12.53;4.10;;;;;;;25.00;70.01;98162.22;6189134;23;20524;-85
2023/07/02 00:56:56;;;;;;;11.13;4.30;;;;;;;24.90;70.53;98161.75;6217352;23;20165;-85
2023/07/02 00:59:22;;;;;;;6.03;3.97;;;;;;;24.80;71.81;98167.44;6216885;23;20188;-85
2023/07/02 01:01:50;;;;;;;6.90;4.00;;;;;;;24.82;71.91;98168.06;6217019;23;20176;-85
2023/07/02 01:04:19;;;;;;;7.43;4.20;;;;;;;24.77;72.32;98173.16;6190605;23;20164;-85
2023/07/02 01:06:45;;;;;;;9.40;4.43;;;;;;;24.66;72.52;98173.66;6217040;23;20146;-85
2023/07/02 01:09:11;;;;;;;8.20;4.03;;;;;;;24.57;73.45;98180.19;6216947;23;20270;-85
2023/07/02 01:11:45;;;;;;;6.57;3.83;;;;;;;24.58;73.27;98173.00;6216872;23;20181;-85
2023/07/02 01:14:26;;;;;;;6.07;3.57;;;;;;;24.67;72.61;98180.69;6190817;23;20153;-85
2023/07/02 01:16:54;;;;;;;13.77;4.60;;;;;;;24.59;73.58;98182.69;6217288;23;20145;-85
2023/07/02 01:19:40;;;;;;;9.80;4.37;;;;;;;24.68;73.24;98177.00;6216894;23;20160;-85
2023/07/02 01:22:06;;;;;;;9.47;4.57;;;;;;;24.76;72.28;98176.88;6190714;23;20142;-85
2023/07/02 01:24:32;;;;;;;9.17;4.67;;;;;;;24.87;71.49;98172.84;6216759;23;20610;-85
2023/07/02 01:27:00;;;;;;;10.20;4.80;;;;;;;24.88;71.18;98169.97;6190505;23;20161;-85
2023/07/02 01:29:29;;;;;;;9.67;4.60;;;;;;;24.82;71.55;98172.59;6216786;23;20578;-85
2023/07/02 01:31:55;;;;;;;14.07;5.27;;;;;;;24.68;72.28;98171.66;6216708;23;20173;-85
2023/07/02 01:34:21;;;;;;;9.77;5.13;;;;;;;24.66;72.42;98179.03;6217135;23;20565;-85
2023/07/02 01:36:46;;;;;;;9.30;4.23;;;;;;;24.63;72.52;98183.97;6216573;23;20570;-85
2023/07/02 01:39:11;;;;;;;7.63;4.50;;;;;;;24.61;73.14;98176.09;6216531;23;20481;-85
2023/07/02 01:41:50;;;;;;;6.87;3.77;;;;;;;24.59;72.70;98175.47;6216841;23;20226;-85
2023/07/02 01:44:16;;;;;;;8.70;5.27;;;;;;;24.59;72.96;98183.50;6216584;23;20165;-85
2023/07/02 01:46:41;;;;;;;6.97;4.20;;;;;;;24.62;72.28;98177.78;6190366;23;20468;-85
2023/07/02 01:49:07;;;;;;;14.40;4.63;;;;;;;24.61;71.96;98176.09;6190436;23;20162;-85
2023/07/02 01:51:33;;;;;;;9.10;4.50;;;;;;;24.59;71.40;98178.16;6216610;23;20158;-85
2023/07/02 01:54:00;;;;;;;8.87;3.97;;;;;;;24.54;71.65;98185.94;6216498;23;20181;-85
2023/07/02 01:56:26;;;;;;;9.60;4.87;;;;;;;24.61;71.39;98170.75;6216439;23;20513;-85
2023/07/02 01:58:52;;;;;;;10.00;3.97;;;;;;;24.63;70.79;98167.88;6216613;23;20217;-85
2023/07/02 02:01:17;;;;;;;7.03;4.20;;;;;;;24.58;71.07;98162.28;6217119;23;20177;-85
2023/07/02 02:03:42;;;;;;;8.23;4.23;;;;;;;24.62;70.77;98164.38;6216653;23;20153;-85
2023/07/02 02:06:08;;;;;;;9.73;4.87;;;;;;;24.73;70.21;98163.84;6216229;23;20173;-85
2023/07/02 02:08:34;;;;;;;7.60;4.30;;;;;;;24.65;70.55;98172.03;6189923;23;20164;-85
2023/07/02 02:11:00;;;;;;;8.43;4.40;;;;;;;24.47;71.24;98168.97;6216450;23;20475;-85
2023/07/02 02:13:26;;;;;;;7.67;4.20;;;;;;;24.43;72.08;98162.31;6216397;23;20538;-85
2023/07/02 02:15:51;;;;;;;8.30;4.40;;;;;;;24.47;72.27;98166.31;6216432;23;20142;-85
2023/07/02 02:18:17;;;;;;;10.03;5.30;;;;;;;24.49;71.94;98164.25;6190036;23;20185;-85
2023/07/02 02:20:42;;;;;;;7.00;4.27;;;;;;;24.51;71.51;98153.34;6216581;23;20212;-85
2023/07/02 02:23:07;;;;;;;8.10;4.43;;;;;;;24.47;71.31;98157.44;6216226;23;20581;-85
2023/07/02 02:25:33;;;;;;;7.33;4.47;;;;;;;24.47;71.17;98158.25;6216143;23;20265;-86
2023/07/02 02:27:58;;;;;;;6.83;4.07;;;;;;;24.44;71.11;98153.28;6216283;23;20146;-85
2023/07/02 02:30:24;;;;;;;13.43;5.20;;;;;;;24.32;71.83;98161.00;6216104;23;20578;-85
2023/07/02 02:32:49;;;;;;;9.00;4.67;;;;;;;24.26;72.01;98156.41;6216032;23;20146;-85
2023/07/02 02:35:15;;;;;;;10.83;4.77;;;;;;;24.36;71.88;98170.31;6216154;23;20141;-86
2023/07/02 02:37:40;;;;;;;7.97;4.83;;;;;;;24.37;71.56;98173.84;6216510;23;20160;-85
2023/07/02 02:40:08;;;;;;;7.83;3.80;;;;;;;24.32;71.36;98168.19;6216479;23;20569;-85
2023/07/02 02:42:34;;;;;;;8.73;4.20;;;;;;;24.22;71.48;98184.56;6189813;23;20581;-85
2023/07/02 02:44:59;;;;;;;9.23;5.03;;;;;;;24.20;71.61;98183.13;6215967;23;20170;-86
2023/07/02 02:47:25;;;;;;;12.37;4.63;;;;;;;24.22;71.34;98186.41;6216407;23;20554;-85
2023/07/02 02:49:50;;;;;;;14.43;4.77;;;;;;;24.22;71.32;98181.91;6215959;23;20160;-85
2023/07/02 02:52:16;;;;;;;8.20;4.87;;;;;;;24.24;71.04;98184.41;6215949;23;20150;-85
2023/07/02 02:54:41;;;;;;;7.57;4.10;;;;;;;24.19;71.09;98186.78;6189832;23;20588;-85
2023/07/02 02:57:07;;;;;;;10.50;4.67;;;;;;;24.12;71.36;98170.69;6215802;23;20535;-85
2023/07/02 02:59:32;;;;;;;10.80;4.67;;;;;;;24.10;71.71;98170.03;6215966;23;20150;-85
2023/07/02 03:01:57;;;;;;;13.90;5.63;;;;;;;24.14;71.38;98167.78;6215834;23;20173;-85
2023/07/02 03:04:24;;;;;;;8.37;4.90;;;;;;;24.15;71.90;98175.66;6215760;23;20146;-86
2023/07/02 03:06:51;;;;;;;7.43;4.93;;;;;;;24.07;72.23;98177.59;6215870;23;20479;-85
2023/07/02 03:09:17;;;;;;;8.27;4.93;;;;;;;24.06;72.61;98181.25;6189676;23;20158;-85
2023/07/02 03:11:42;;;;;;;9.00;5.00;;;;;;;24.09;72.64;98175.56;6215718;23;20188;-85
2023/07/02 03:14:07;;;;;;;10.53;4.83;;;;;;;24.09;72.77;98175.56;6189569;23;20639;-85
2023/07/02 03:16:33;;;;;;;8.67;4.87;;;;;;;24.21;72.42;98182.09;6216105;23;20150;-85
2023/07/02 03:18:59;;;;;;;9.03;4.87;;;;;;;24.18;72.31;98177.13;6188951;23;20154;-85
2023/07/02 03:21:24;;;;;;;11.83;5.27;;;;;;;24.24;72.33;98174.50;6215717;23;20173;-85
2023/07/02 03:23:50;;;;;;;10.80;4.73;;;;;;;24.26;72.44;98179.69;6215723;23;20150;-86
2023/07/02 03:26:15;;;;;;;7.80;4.57;;;;;;;24.22;73.19;98186.41;6215956;23;20180;-85
2023/07/02 03:28:40;;;;;;;9.20;4.87;;;;;;;24.26;73.08;98193.06;6189557;23;20605;-86
2023/07/02 03:31:06;;;;;;;20.13;5.90;;;;;;;24.35;72.96;98183.88;6215868;23;20583;-86
2023/07/02 03:33:32;;;;;;;8.63;4.97;;;;;;;24.28;74.03;98166.94;6215694;23;20173;-85
2023/07/02 03:35:57;;;;;;;8.97;5.77;;;;;;;24.27;75.28;98159.91;6215688;23;20238;-85
2023/07/02 03:38:24;;;;;;;12.30;5.63;;;;;;;24.38;74.72;98167.44;6215706;23;20186;-85
2023/07/02 03:40:49;;;;;;;7.73;5.37;;;;;;;24.43;74.72;98178.41;6215915;23;20150;-85
2023/07/02 03:43:15;;;;;;;15.90;6.03;;;;;;;24.43;75.50;98181.09;6216045;23;20476;-85
2023/07/02 03:45:40;;;;;;;7.93;4.80;;;;;;;24.47;75.38;98174.34;6215462;23;20620;-85
2023/07/02 03:48:05;;;;;;;9.10;5.20;;;;;;;24.52;75.17;98169.22;6216285;23;20150;-85
2023/07/02 03:50:31;;;;;;;12.37;4.97;;;;;;;24.58;74.84;98175.69;6215652;23;20150;-85
2023/07/02 03:52:56;;;;;;;8.13;4.63;;;;;;;24.59;74.92;98186.19;6215732;23;20161;-86
2023/07/02 03:55:21;;;;;;;11.93;6.30;;;;;;;24.68;75.07;98176.19;6215518;23;20565;-85
2023/07/02 03:57:47;;;;;;;11.57;5.50;;;;;;;24.71;75.04;98187.31;6215342;23;20224;-85
2023/07/02 04:00:13;;;;;;;9.03;5.67;;;;;;;24.83;74.34;98185.81;6215657;23;20561;-86
2023/07/02 04:02:38;;;;;;;14.23;4.87;;;;;;;24.86;74.52;98185.44;6189303;23;20485;-86
2023/07/02 04:05:04;;;;;;;9.57;5.20;;;;;;;24.78;75.12;98192.75;6215470;23;20267;-85
2023/07/02 04:07:30;;;;;;;9.50;4.90;;;;;;;24.82;74.85;98186.84;6215689;23;20142;-86
2023/07/02 04:09:55;;;;;;;9.97;5.17;;;;;;;24.90;74.70;98191.22;6215922;23;20146;-85
2023/07/02 04:12:20;;;;;;;17.50;5.80;;;;;;;24.85;74.06;98189.13;6215570;23;20160;-86
2023/07/02 04:14:46;;;;;;;8.27;5.47;;;;;;;24.87;74.01;98192.44;6215421;23;20497;-85
2023/07/02 04:17:11;;;;;;;11.43;5.20;;;;;;;24.98;74.04;98204.50;6215428;23;20204;-85
2023/07/02 04:19:37;;;;;;;10.43;5.67;;;;;;;25.02;74.17;98203.94;6215436;23;20146;-85
2023/07/02 04:22:02;;;;;;;9.53;5.83;;;;;;;25.02;74.90;98203.94;6215767;23;20236;-85
2023/07/02 04:24:28;;;;;;;11.63;6.27;;;;;;;25.16;74.68;98204.03;6189235;23;20489;-85
2023/07/02 04:26:53;;;;;;;13.17;6.80;;;;;;;25.30;73.66;98208.44;6215401;23;20456;-86
2023/07/02 04:29:19;;;;;;;12.20;6.30;;;;;;;25.33;73.60;98211.56;6215398;23;20590;-85
2023/07/02 04:31:44;;;;;;;12.97;6.07;;;;;;;25.28;74.06;98218.56;6217222;23;20570;-86
2023/07/02 04:34:09;;;;;;;9.23;6.20;;;;;;;25.22;74.04;98217.47;6191132;23;20158;-86
2023/07/02 04:36:35;;;;;;;13.83;6.30;;;;;;;25.17;74.15;98219.09;6217282;23;20150;-86
2023/07/02 04:39:00;;;;;;;10.20;6.10;;;;;;;25.26;73.83;98218.72;6217469;23;20516;-86
2023/07/02 04:41:27;;;;;;;10.40;6.85;;;;;;;25.37;73.82;98233.47;6217248;23;20582;-86
2023/07/02 04:43:52;;;;;;;11.90;6.57;;;;;;;25.36;74.13;98235.34;6217192;23;20146;-86
2023/07/02 04:46:18;;;;;;;12.50;5.73;;;;;;;25.40;74.01;98227.69;6190922;23;20181;-86
2023/07/02 04:48:43;;;;;;;10.47;5.83;;;;;;;25.56;72.55;98222.06;6217142;23;20160;-86
2023/07/02 04:51:08;;;;;;;12.77;6.87;;;;;;;25.69;72.00;98229.34;6190876;23;20165;-86
2023/07/02 04:53:34;;;;;;;14.73;6.67;;;;;;;25.72;72.26;98221.75;6217116;23;20149;-86
2023/07/02 04:56:00;;;;;;;9.50;5.67;;;;;;;25.58;73.68;98226.19;6216995;23;20609;-85
2023/07/02 04:58:26;;;;;;;12.77;6.10;;;;;;;25.63;73.23;98239.03;6190913;23;20220;-86
2023/07/02 05:00:52;;;;;;;11.43;6.83;;;;;;;25.62;72.55;98237.38;6217058;23;20574;-85
2023/07/02 05:03:17;;;;;;;9.30;5.80;;;;;;;25.61;72.61;98239.22;6190860;23;20153;-85
2023/07/02 05:05:43;;;;;;;13.50;5.40;;;;;;;25.58;72.56;98233.41;6216781;23;20248;-85
2023/07/02 05:08:08;;;;;;;10.90;5.20;;;;;;;25.69;72.17;98238.25;6217010;23;20474;-86
2023/07/02 05:10:34;;;;;;;8.17;5.40;;;;;;;25.74;72.16;98245.69;6190996;23;20232;-86
2023/07/02 05:12:59;;;;;;;9.77;5.30;;;;;;;25.65;72.04;98247.72;6217006;23;20161;-86
2023/07/02 05:15:26;;;;;;;7.93;4.90;;;;;;;25.56;71.67;98243.53;6216923;23;20601;-86
2023/07/02 05:17:51;;;;;;;9.03;5.07;;;;;;;25.61;70.10;98257.19;6190361;23;20237;-85
2023/07/02 05:20:16;;;;;;;9.17;4.70;;;;;;;25.70;69.79;98264.06;6190691;23;20204;-85
2023/07/02 05:22:42;;;;;;;8.30;4.97;;;;;;;25.74;68.78;98259.94;6217240;23;20626;-86
2023/07/02 05:25:08;;;;;;;13.17;5.07;;;;;;;25.59;70.02;98256.56;6216718;23;20652;-85
2023/07/02 05:27:33;;;;;;;8.20;4.60;;;;;;;25.69;69.34;98261.56;6217507;23;20199;-86
2023/07/02 05:29:58;;;;;;;6.33;4.60;;;;;;;25.76;67.57;98252.53;6190652;23;20212;-86
2023/07/02 05:32:24;;;;;;;6.63;4.27;;;;;;;25.76;67.98;98257.88;6190588;23;20192;-86
2023/07/02 05:34:50;;;;;;;9.43;4.73;;;;;;;25.68;67.10;98259.94;6216756;23;20168;-86
2023/07/02 05:37:15;;;;;;;7.60;4.90;;;;;;;25.64;66.63;98259.47;6216785;23;20146;-87
2023/07/02 05:39:40;;;;;;;12.90;4.70;;;;;;;25.69;65.38;98262.41;6216733;23;20221;-86
2023/07/02 05:42:06;;;;;;;7.77;4.87;;;;;;;25.71;65.55;98265.72;6216014;23;20177;-86
2023/07/02 05:44:31;;;;;;;5.83;3.97;;;;;;;25.70;65.06;98272.13;6216583;23;20215;-87
2023/07/02 05:46:57;;;;;;;8.37;4.93;;;;;;;25.69;64.61;98270.44;6216872;23;20145;-87
2023/07/02 05:49:22;;;;;;;11.17;5.27;;;;;;;25.71;64.87;98265.72;6190382;23;20158;-86
2023/07/02 05:51:48;;;;;;;8.67;5.10;;;;;;;25.75;65.98;98275.03;6216679;23;20157;-86
2023/07/02 05:54:13;;;;;;;6.73;4.47;;;;;;;25.77;65.34;98278.34;6216602;23;20232;-85
2023/07/02 05:56:39;;;;;;;7.80;4.90;;;;;;;25.83;66.37;98282.94;6197482;23;20572;-85
2023/07/02 05:59:04;;;;;;;8.53;4.73;;;;;;;26.07;65.74;98281.63;6246216;23;20214;-85
2023/07/02 06:01:29;;;;;;;10.53;5.23;;;;;;;26.24;65.52;98272.22;6246332;23;20228;-85
2023/07/02 06:03:55;;;;;;;8.20;5.03;;;;;;;26.48;62.62;98265.47;6245876;23;20176;-87
2023/07/02 06:06:24;;;;;;;10.17;5.23;;;;;;;26.35;61.76;98273.50;6245869;23;20183;-85
2023/07/02 06:08:50;;;;;;;6.87;4.60;;;;;;;26.32;63.24;98288.16;6246197;23;20220;-85
2023/07/02 06:11:16;;;;;;;10.70;4.53;;;;;;;26.60;63.89;98296.94;6220058;23;20611;-86
2023/07/02 06:13:41;;;;;;;6.93;4.50;;;;;;;26.88;62.51;98290.63;6219950;23;20160;-86
2023/07/02 06:16:06;;;;;;;7.53;4.82;;;;;;;26.88;60.94;98287.94;6246558;23;20149;-86
2023/07/02 06:18:33;;;;;;;6.90;4.60;;;;;;;27.04;59.93;98295.63;6246148;23;20597;-86
2023/07/02 06:20:59;;;;;;;10.32;4.35;;;;;;;27.18;57.15;98294.59;6246541;23;20589;-86
2023/07/02 06:23:26;;;;;;;6.70;3.72;;;;;;;27.18;57.04;98292.72;6246383;23;20218;-87
2023/07/02 06:25:58;;;;;;;7.13;4.50;;;;;;;27.26;57.44;98289.00;6246466;23;20191;-87
2023/07/02 06:28:26;;;;;;;9.27;4.45;;;;;;;27.09;59.18;98299.34;6246409;23;20203;-86
2023/07/02 06:30:53;;;;;;;8.02;4.30;;;;;;;27.17;58.04;98307.25;6247258;23;20224;-86
2023/07/02 06:33:19;;;;;;;6.93;4.57;;;;;;;27.24;59.16;98305.38;6246290;23;20145;-86
2023/07/02 06:35:46;;;;;;;9.80;4.80;;;;;;;27.26;58.84;98299.78;6246852;23;20145;-86
2023/07/02 06:38:12;;;;;;;10.52;4.47;;;;;;;27.40;60.26;98302.31;6220026;23;20164;-86
2023/07/02 06:40:40;;;;;;;9.70;4.88;;;;;;;27.45;56.31;98298.97;6219842;23;20177;-87
2023/07/02 06:43:07;;;;;;;7.57;4.45;;;;;;;27.47;56.91;98315.75;6219561;23;20161;-86
2023/07/02 06:45:32;;;;;;;13.55;4.88;;;;;;;27.53;57.86;98311.41;6246263;23;20177;-86
2023/07/02 06:47:58;;;;;;;8.38;4.32;;;;;;;27.55;56.97;98314.69;6246440;23;20180;-86
2023/07/02 06:50:23;;;;;;;7.07;4.32;;;;;;;27.58;57.53;98300.81;6246299;23;20217;-86
2023/07/02 06:52:49;;;;;;;7.15;4.35;;;;;;;27.67;56.42;98304.97;6246065;23;20591;-86
2023/07/02 06:55:14;;;;;;;7.70;4.68;;;;;;;27.56;57.72;98301.06;6246365;23;20223;-86
2023/07/02 06:57:47;;;;;;;8.27;4.47;;;;;;;27.46;58.55;98305.19;6219676;23;20625;-86
2023/07/02 07:00:13;;;;;;;9.70;4.20;;;;;;;27.48;59.65;98303.13;6246284;23;20535;-86
2023/07/02 07:02:39;;;;;;;7.43;4.20;;;;;;;27.40;59.86;98304.16;6246222;23;20149;-86
2023/07/02 07:05:05;;;;;;;7.35;5.10;;;;;;;27.26;60.44;98305.97;6246096;23;20253;-86
2023/07/02 07:07:30;;;;;;;8.07;4.32;;;;;;;27.29;60.16;98300.19;6246293;23;20630;-86
2023/07/02 07:09:56;;;;;;;10.00;5.35;;;;;;;27.24;61.21;98291.91;6219694;23;20239;-86
2023/07/02 07:12:21;;;;;;;9.68;5.13;;;;;;;27.39;59.77;98297.06;6219800;23;20152;-87
2023/07/02 07:14:46;;;;;;;10.37;4.33;;;;;;;27.40;59.78;98296.09;6219666;23;20177;-86
2023/07/02 07:17:12;;;;;;;10.98;5.53;;;;;;;27.45;59.71;98298.97;6219706;23;20222;-86
2023/07/02 07:19:37;;;;;;;11.37;5.07;;;;;;;27.53;59.72;98295.25;6246076;23;20149;-86
2023/07/02 07:22:03;;;;;;;13.17;4.83;;;;;;;27.72;60.74;98302.47;6246121;23;20451;-86
2023/07/02 07:24:28;;;;;;;8.52;4.38;;;;;;;27.96;60.51;98301.81;6245834;23;20145;-86
2023/07/02 07:26:54;;;;;;;10.93;5.22;;;;;;;28.04;57.30;98298.91;6246031;23;20156;-86
2023/07/02 07:29:19;;;;;;;9.70;4.38;;;;;;;28.11;58.42;98296.19;6220321;23;20218;-86
2023/07/02 07:31:45;;;;;;;8.48;4.07;;;;;;;28.23;56.79;98297.19;6246043;23;20648;-87
2023/07/02 07:34:11;;;;;;;10.57;3.90;;;;;;;28.20;56.64;98290.34;6246024;23;20172;-86
2023/07/02 07:36:37;;;;;;;9.52;4.03;;;;;;;28.49;55.16;98283.59;6245964;23;20502;-87
2023/07/02 07:39:02;;;;;;;8.27;3.92;;;;;;;28.82;54.21;98275.34;6246043;23;20644;-86
2023/07/02 07:41:28;;;;;;;8.20;4.25;;;;;;;28.85;52.91;98272.22;6246005;23;20159;-87
2023/07/02 07:43:53;;;;;;;9.13;4.22;;;;;;;28.94;54.48;98274.44;6219916;23;20564;-87
2023/07/02 07:46:23;;;;;;;6.38;3.53;;;;;;;29.36;53.79;98272.91;6242418;23;20488;-87
2023/07/02 07:48:48;;;;;;;8.40;4.10;;;;;;;29.69;52.03;98273.41;6219312;23;20243;-87
2023/07/02 07:51:14;;;;;;;7.47;4.00;;;;;;;29.94;50.90;98277.97;6244190;23;20177;-87
2023/07/02 07:53:39;;;;;;;10.70;4.68;;;;;;;30.12;50.93;98280.66;6219225;23;20153;-89
2023/07/02 07:56:06;;;;;;;8.02;3.60;;;;;;;30.39;49.95;98292.88;6245972;23;20145;-88
2023/07/02 07:58:34;;;;;;;6.85;3.70;;;;;;;30.56;45.97;98291.16;6219256;23;20169;-87
2023/07/02 08:00:59;;;;;;;7.30;4.13;;;;;;;30.63;46.38;98296.50;6219104;23;20237;-87
2023/07/02 08:03:25;;;;;;;8.73;4.07;;;;;;;30.63;45.58;98283.81;6245562;23;20172;-88
2023/07/02 08:05:50;;;;;;;10.25;4.03;;;;;;;30.82;46.37;98279.16;6220463;23;20180;-88
2023/07/02 08:08:16;;;;;;;6.82;3.78;;;;;;;31.03;46.13;98276.78;6247636;23;20155;-87
2023/07/02 08:10:41;;;;;;;11.32;3.35;;;;;;;31.17;45.96;98271.16;6247999;23;20156;-88
2023/07/02 08:13:08;;;;;;;7.82;3.53;;;;;;;31.39;45.49;98264.97;6247971;23;20149;-87
2023/07/02 08:15:33;;;;;;;7.57;3.92;;;;;;;31.53;45.34;98268.28;6248015;23;20149;-87
2023/07/02 08:17:59;;;;;;;6.82;3.55;;;;;;;31.73;43.13;98266.06;6247751;23;20547;-88
2023/07/02 08:20:25;;;;;;;5.88;3.72;;;;;;;31.82;44.03;98263.78;6221063;23;20625;-87
2023/07/02 08:22:51;;;;;;;9.40;4.00;;;;;;;32.13;43.70;98266.97;6247415;23;20534;-88
2023/07/02 08:25:17;;;;;;;7.43;4.05;;;;;;;32.26;43.24;98265.06;6220981;23;20177;-88
2023/07/02 08:27:43;;;;;;;7.97;4.18;;;;;;;32.31;45.45;98265.16;6221489;23;20149;-87
2023/07/02 08:30:10;;;;;;;7.07;3.78;;;;;;;32.30;46.41;98267.03;6247193;23;20159;-89
2023/07/02 08:32:35;;;;;;;8.80;3.67;;;;;;;32.51;43.19;98260.13;6247561;23;20152;-86
2023/07/02 08:35:01;;;;;;;7.10;3.60;;;;;;;32.58;43.79;98252.69;6220778;23;20149;-86
2023/07/02 08:37:26;;;;;;;6.88;3.83;;;;;;;32.68;44.17;98255.59;6220641;23;20157;-87
2023/07/02 08:39:52;;;;;;;7.45;3.88;;;;;;;32.57;43.57;98251.88;6247321;23;20224;-86
2023/07/02 08:42:18;;;;;;;8.45;3.47;;;;;;;32.77;44.11;98254.13;6220681;23;20149;-86
2023/07/02 08:44:47;;;;;;;8.45;3.95;;;;;;;33.16;41.83;98250.50;6220932;23;20157;-87
2023/07/02 08:47:13;;;;;;;8.10;3.70;;;;;;;33.48;39.64;98247.22;6247277;23;20248;-87
2023/07/02 08:49:42;;;;;;;7.80;4.07;;;;;;;33.66;41.07;98245.06;6220878;23;20199;-88
2023/07/02 08:52:07;;;;;;;7.53;4.03;;;;;;;33.76;40.89;98244.38;6221392;23;20153;-87
2023/07/02 08:54:33;;;;;;;9.23;4.43;;;;;;;33.86;41.95;98242.63;6247119;23;20184;-87
2023/07/02 08:56:58;;;;;;;6.07;3.35;;;;;;;33.72;40.46;98238.66;6220847;23;20169;-87
2023/07/02 08:59:24;;;;;;;8.00;3.80;;;;;;;33.77;39.32;98237.88;6220424;23;20167;-86
2023/07/02 09:01:51;;;;;;;8.77;4.00;;;;;;;33.77;40.95;98243.31;6221123;23;20164;-88
2023/07/02 09:04:22;;;;;;;6.03;3.08;;;;;;;33.93;40.35;98245.19;6247674;23;20271;-87
2023/07/02 09:06:49;;;;;;;6.03;3.38;;;;;;;34.05;41.32;98237.72;6246796;23;20238;-87
2023/07/02 09:09:15;;;;;;;6.22;3.90;;;;;;;34.08;42.29;98234.53;6245863;23;20156;-87
2023/07/02 09:11:49;;;;;;;5.90;3.35;;;;;;;34.26;41.80;98226.03;6220372;23;20152;-87
2023/07/02 09:14:31;;;;;;;8.15;4.20;;;;;;;34.38;39.18;98232.16;6247237;23;20145;-88
2023/07/02 09:17:12;;;;;;;6.32;3.75;;;;;;;34.55;38.65;98224.78;6220401;23;20163;-88
2023/07/02 09:19:50;;;;;;;5.80;3.33;;;;;;;34.50;39.61;98230.13;6220078;23;20204;-88
2023/07/02 09:22:16;;;;;;;7.13;3.28;;;;;;;34.30;38.12;98220.94;6246332;23;20137;-87
2023/07/02 09:24:50;;;;;;;6.82;3.20;;;;;;;34.34;39.50;98225.59;6247055;23;20149;-85
2023/07/02 09:27:16;;;;;;;7.97;3.45;;;;;;;34.27;39.48;98224.97;6220445;23;20157;-88
2023/07/02 09:29:42;;;;;;;6.15;2.88;;;;;;;34.48;39.18;98226.03;6220594;23;20157;-86
2023/07/02 09:32:07;;;;;;;5.55;3.30;;;;;;;34.67;37.92;98223.81;6247048;23;20565;-87
2023/07/02 09:34:35;;;;;;;6.60;3.38;;;;;;;34.71;38.11;98224.91;6220624;23;20249;-86
2023/07/02 09:37:02;;;;;;;7.85;2.95;;;;;;;34.60;38.29;98218.56;6220482;23;20164;-86
2023/07/02 09:39:29;;;;;;;6.72;2.97;;;;;;;34.83;37.84;98218.22;6220562;23;20153;-86
2023/07/02 09:41:57;;;;;;;7.25;3.15;;;;;;;34.72;35.69;98223.84;6246939;23;20149;-86
2023/07/02 09:44:29;;;;;;;6.78;3.25;;;;;;;34.58;36.08;98221.53;6220484;23;20167;-86
2023/07/02 09:47:08;;;;;;;6.40;3.28;;;;;;;34.99;36.17;98225.47;6246845;23;20137;-86
2023/07/02 09:49:48;;;;;;;8.18;3.70;;;;;;;34.75;36.85;98223.34;6220392;23;20192;-86
2023/07/02 09:52:15;;;;;;;6.55;2.83;;;;;;;34.55;36.87;98224.78;6246839;23;20519;-86
2023/07/02 09:54:41;;;;;;;10.73;3.45;;;;;;;34.50;36.71;98216.53;6246691;23;20145;-85
2023/07/02 09:57:07;;;;;;;5.65;2.80;;;;;;;34.38;36.42;98213.09;6234655;23;20166;-86
2023/07/02 09:59:32;;;;;;;7.47;3.85;;;;;;;34.57;37.75;98209.00;6216857;23;20157;-86
2023/07/02 10:01:58;;;;;;;7.72;2.95;;;;;;;34.43;37.26;98202.31;6216326;23;20227;-86
2023/07/02 10:04:24;;;;;;;9.52;3.75;;;;;;;34.43;37.95;98215.09;6216422;23;20640;-86
2023/07/02 10:06:56;;;;;;;7.63;3.97;;;;;;;34.45;38.17;98219.19;6216119;23;20268;-86
2023/07/02 10:09:38;;;;;;;5.20;2.97;;;;;;;34.39;38.91;98216.66;6216320;23;20480;-86
2023/07/02 10:12:23;;;;;;;6.97;3.45;;;;;;;34.42;38.84;98203.38;6216072;23;20142;-86
2023/07/02 10:14:50;;;;;;;8.82;3.50;;;;;;;34.42;39.35;98213.44;6216629;23;20231;-84
2023/07/02 10:17:33;;;;;;;10.20;3.72;;;;;;;34.36;39.37;98222.59;6216103;23;20150;-84
2023/07/02 10:20:06;;;;;;;7.07;3.78;;;;;;;34.21;40.17;98215.09;6186808;23;20596;-85
2023/07/02 10:22:54;;;;;;;7.80;3.33;;;;;;;34.14;40.56;98209.03;6192676;23;20158;-85
2023/07/02 10:25:28;;;;;;;8.48;3.63;;;;;;;34.03;40.51;98200.97;6190483;23;20170;-85
2023/07/02 10:27:53;;;;;;;7.93;4.10;;;;;;;33.91;41.01;98218.22;6215404;23;20158;-84
2023/07/02 10:30:31;;;;;;;7.18;3.78;;;;;;;33.76;42.08;98218.03;6215041;23;20224;-85
2023/07/02 10:33:09;;;;;;;6.95;3.78;;;;;;;33.41;42.73;98222.94;6188263;23;20141;-84
2023/07/02 10:35:34;;;;;;;10.05;4.07;;;;;;;33.22;42.51;98227.81;6215592;23;20129;-85
2023/07/02 10:38:01;;;;;;;8.48;3.90;;;;;;;32.96;43.02;98239.28;6215825;23;20199;-84
2023/07/02 10:40:29;;;;;;;6.80;3.40;;;;;;;32.60;45.11;98251.38;6215645;23;20214;-84
2023/07/02 10:42:54;;;;;;;9.82;4.30;;;;;;;32.23;45.68;98261.72;6215615;23;20161;-84
2023/07/02 10:45:30;;;;;;;11.65;4.35;;;;;;;31.68;48.53;98251.56;6215634;23;20173;-83
2023/07/02 10:47:55;;;;;;;14.88;5.10;;;;;;;31.14;50.83;98239.13;6214365;23;20220;-84
2023/07/02 10:50:23;;;;;;;17.45;6.05;;;;;;;30.67;53.15;98211.94;6215810;23;20595;-83
2023/07/02 10:52:51;;;;;;;12.63;5.13;;;;;;;30.30;54.05;98200.38;6189585;23;20485;-82
2023/07/02 10:55:21;;;;;;;11.25;5.00;;;;;;;30.04;55.01;98210.69;6215228;23;20174;-81
2023/07/02 10:57:48;;;;;;;16.63;5.18;;;;;;;29.85;55.58;98238.81;6214823;23;20237;-83
2023/07/02 11:00:14;;;;;;;13.32;5.50;;;;;;;29.53;56.99;98233.50;6215703;23;20154;-83
2023/07/02 11:02:40;;;;;;;14.75;5.65;;;;;;;29.03;58.80;98223.75;6215544;23;20146;-83
2023/07/02 11:05:11;;;;;;;13.82;5.55;;;;;;;28.69;60.26;98216.09;6215740;23;20169;-83
2023/07/02 11:07:37;;;;;;;11.02;5.03;;;;;;;28.43;61.30;98228.66;6215790;23;20134;-82
2023/07/02 11:10:03;;;;;;;11.60;6.43;;;;;;;28.15;62.98;98228.19;6215996;23;20292;-81
2023/07/02 11:12:30;;;;;;;11.53;5.23;;;;;;;28.02;63.18;98214.75;6214730;23;20153;-81
2023/07/02 11:15:06;;;;;;;13.87;5.57;;;;;;;27.90;63.64;98216.44;6215542;23;20152;-81
2023/07/02 11:17:31;;;;;;;11.20;4.83;;;;;;;27.80;63.67;98227.69;6215846;23;20165;-81
2023/07/02 11:19:57;;;;;;;10.00;4.93;;;;;;;27.59;65.14;98244.09;6215617;23;20173;-80
2023/07/02 11:22:33;;;;;;;13.93;5.13;;;;;;;27.14;68.41;98271.84;6215655;23;20237;-81
2023/07/02 11:25:28;;;;;;;15.67;6.27;;;;;;;26.42;70.11;98290.47;6215636;23;20613;-79
2023/07/02 11:28:04;;;;;;;11.95;5.63;;;;;;;25.71;71.10;98302.50;6183817;23;20232;-81
2023/07/02 11:30:29;;;;;;;17.97;6.20;;;;;;;24.93;73.79;98308.81;6215726;23;20153;-81